createdAt,value
2023-02-09T00:01:09.013Z,23.33
2023-02-09T00:03:36.200Z,25.10
2023-02-09T00:06:05.168Z,23.40
2023-02-09T00:08:33.171Z,21.25
2023-02-09T00:10:59.791Z,21.50
2023-02-09T00:13:26.672Z,24.73
2023-02-09T00:15:55.941Z,23.98
2023-02-09T00:18:23.617Z,20.93
2023-02-09T00:21:19.625Z,26.65
2023-02-09T00:23:46.237Z,21.58
2023-02-09T00:26:12.889Z,21.80
2023-02-09T00:28:43.276Z,22.27
2023-02-09T00:31:11.539Z,26.67
2023-02-09T00:36:10.557Z,21.17
2023-02-09T00:38:37.458Z,22.80
2023-02-09T00:41:04.776Z,21.88
2023-02-09T00:43:32.420Z,22.90
2023-02-09T00:45:59.172Z,22.27
2023-02-09T00:48:25.917Z,27.65
2023-02-09T00:50:53.139Z,20.77
2023-02-09T00:53:21.317Z,27.13
2023-02-09T00:55:48.236Z,24.48
2023-02-09T00:58:15.317Z,26.65
2023-02-09T01:00:42.202Z,25.13
2023-02-09T01:03:09.090Z,26.60
2023-02-09T01:05:41.839Z,29.58
2023-02-09T01:08:08.541Z,29.85
2023-02-09T01:10:35.715Z,26.73
2023-02-09T01:13:03.125Z,28.98
2023-02-09T01:15:29.744Z,24.02
2023-02-09T01:17:58.584Z,23.25
2023-02-09T01:20:25.807Z,24.60
2023-02-09T01:22:52.944Z,27.10
2023-02-09T01:25:19.556Z,24.05
2023-02-09T01:27:46.126Z,25.83
2023-02-09T01:30:13.179Z,24.52
2023-02-09T01:32:39.824Z,29.60
2023-02-09T01:35:06.773Z,25.63
2023-02-09T01:37:34.565Z,26.80
2023-02-09T01:40:01.814Z,26.38
2023-02-09T01:42:28.529Z,32.58
2023-02-09T01:45:00.052Z,29.88
2023-02-09T01:47:26.723Z,27.17
2023-02-09T01:49:53.601Z,26.17
2023-02-09T01:52:24.737Z,27.75
2023-02-09T01:57:32.072Z,21.88
2023-02-09T02:00:04.434Z,26.80
2023-02-09T02:02:43.950Z,22.58
2023-02-09T02:08:03.921Z,18.65
2023-02-09T02:10:30.779Z,27.42
2023-02-09T02:12:57.672Z,22.33
2023-02-09T02:15:27.517Z,27.08
2023-02-09T02:18:04.687Z,23.92
2023-02-09T02:20:57.615Z,24.25
2023-02-09T02:23:41.030Z,30.25
2023-02-09T02:26:43.058Z,21.38
2023-02-09T02:29:21.212Z,26.85
2023-02-09T02:32:03.152Z,21.60
2023-02-09T02:35:22.242Z,26.15
2023-02-09T02:38:01.651Z,21.45
2023-02-09T02:40:35.202Z,29.90
2023-02-09T02:43:20.683Z,26.10
2023-02-09T02:45:59.186Z,29.33
2023-02-09T02:49:06.451Z,28.42
2023-02-09T02:51:36.899Z,23.23
2023-02-09T02:54:08.426Z,26.23
2023-02-09T02:56:44.357Z,24.13
2023-02-09T02:59:14.543Z,25.08
2023-02-09T03:04:11.871Z,24.73
2023-02-09T03:06:38.741Z,23.48
2023-02-09T03:09:05.315Z,22.05
2023-02-09T03:11:38.773Z,23.13
2023-02-09T03:14:13.463Z,25.13
2023-02-09T03:16:44.690Z,27.45
2023-02-09T03:19:35.421Z,24.80
2023-02-09T03:22:23.332Z,25.00
2023-02-09T03:24:52.015Z,33.13
2023-02-09T03:27:40.622Z,32.17
2023-02-09T03:30:10.538Z,31.00
2023-02-09T03:32:39.592Z,24.50
2023-02-09T03:35:07.112Z,27.45
2023-02-09T03:37:33.792Z,25.42
2023-02-09T03:40:00.802Z,24.95
2023-02-09T03:42:27.653Z,22.45
2023-02-09T03:44:55.771Z,23.50
2023-02-09T03:47:22.364Z,20.92
2023-02-09T03:49:48.920Z,26.88
2023-02-09T03:52:16.513Z,58.47
2023-02-09T03:54:43.829Z,80.18
2023-02-09T03:57:10.755Z,78.13
2023-02-09T03:59:37.687Z,74.47
2023-02-09T04:02:07.289Z,57.47
2023-02-09T04:04:34.471Z,54.97
2023-02-09T04:07:01.113Z,39.55
2023-02-09T04:09:28.260Z,55.47
2023-02-09T04:11:54.940Z,49.97
2023-02-09T04:14:21.857Z,51.40
2023-02-09T04:16:48.522Z,53.33
2023-02-09T04:19:15.120Z,52.83
2023-02-09T04:21:41.906Z,33.30
2023-02-09T04:24:09.453Z,27.60
2023-02-09T04:26:36.278Z,36.17
2023-02-09T04:29:03.323Z,33.78
2023-02-09T04:31:30.093Z,33.90
2023-02-09T04:33:56.729Z,36.13
2023-02-09T04:36:23.470Z,30.10
2023-02-09T04:38:50.363Z,28.58
2023-02-09T04:41:17.081Z,31.67
2023-02-09T04:43:43.864Z,28.42
2023-02-09T04:46:14.972Z,33.50
2023-02-09T04:48:42.245Z,30.05
2023-02-09T04:51:08.856Z,33.42
2023-02-09T04:53:35.661Z,28.15
2023-02-09T04:56:02.259Z,26.50
2023-02-09T04:58:47.581Z,37.45
2023-02-09T05:01:18.739Z,35.15
2023-02-09T05:03:45.538Z,29.25
2023-02-09T05:06:12.239Z,32.80
2023-02-09T05:08:38.897Z,30.17
2023-02-09T05:11:05.715Z,29.73
2023-02-09T05:13:32.329Z,29.30
2023-02-09T05:15:58.909Z,33.78
2023-02-09T05:18:25.619Z,31.55
2023-02-09T05:20:52.484Z,32.00
2023-02-09T05:23:19.192Z,33.58
2023-02-09T05:25:47.259Z,34.83
2023-02-09T05:28:14.273Z,30.17
2023-02-09T05:30:40.906Z,29.15
2023-02-09T05:33:07.584Z,32.30
2023-02-09T05:35:35.168Z,32.60
2023-02-09T05:38:01.771Z,36.58
2023-02-09T05:40:28.377Z,31.35
2023-02-09T05:42:55.099Z,27.77
2023-02-09T05:45:23.249Z,33.78
2023-02-09T05:47:49.816Z,30.33
2023-02-09T05:50:16.723Z,31.85
2023-02-09T05:52:43.325Z,35.88
2023-02-09T05:55:09.975Z,29.98
2023-02-09T05:57:36.601Z,33.33
2023-02-09T06:00:05.513Z,31.30
2023-02-09T06:02:38.910Z,33.03
2023-02-09T06:05:06.052Z,30.98
2023-02-09T06:07:32.611Z,32.53
2023-02-09T06:09:59.268Z,30.55
2023-02-09T06:12:25.998Z,34.00
2023-02-09T06:14:52.548Z,41.88
2023-02-09T06:17:19.137Z,32.28
2023-02-09T06:19:45.773Z,32.80
2023-02-09T06:22:12.370Z,37.58
2023-02-09T06:24:38.975Z,45.15
2023-02-09T06:27:05.560Z,42.22
2023-02-09T06:29:32.163Z,40.30
2023-02-09T06:31:58.911Z,39.97
2023-02-09T06:34:25.895Z,61.65
2023-02-09T06:36:52.468Z,67.35
2023-02-09T06:39:19.156Z,41.90
2023-02-09T06:41:45.872Z,50.78
2023-02-09T06:44:13.049Z,53.13
2023-02-09T06:46:39.800Z,48.47
2023-02-09T06:49:06.464Z,47.85
2023-02-09T06:51:33.209Z,49.78
2023-02-09T06:54:00.059Z,52.00
2023-02-09T06:56:26.774Z,43.58
2023-02-09T06:58:53.460Z,48.80
2023-02-09T07:01:20.834Z,47.15
2023-02-09T07:03:47.452Z,46.15
2023-02-09T07:06:17.227Z,42.92
2023-02-09T07:08:44.727Z,41.80
2023-02-09T07:11:15.239Z,39.55
2023-02-09T07:16:11.085Z,40.28
2023-02-09T07:18:38.562Z,41.30
2023-02-09T07:21:10.685Z,37.85
2023-02-09T07:23:37.930Z,41.30
2023-02-09T07:26:11.358Z,41.75
2023-02-09T07:28:37.920Z,52.40
2023-02-09T07:31:07.476Z,44.47
2023-02-09T07:33:34.742Z,50.22
2023-02-09T07:36:09.800Z,41.13
2023-02-09T07:38:36.893Z,42.28
2023-02-09T07:41:05.341Z,42.03
2023-02-09T07:43:32.114Z,39.75
2023-02-09T07:46:06.878Z,41.58
2023-02-09T07:48:35.007Z,37.55
2023-02-09T07:51:02.141Z,36.22
2023-02-09T07:53:29.255Z,41.15
2023-02-09T07:55:55.983Z,39.05
2023-02-09T07:58:23.237Z,41.50
2023-02-09T08:00:51.175Z,39.63
2023-02-09T08:03:20.029Z,38.28
2023-02-09T08:05:58.605Z,41.13
2023-02-09T08:08:25.165Z,35.38
2023-02-09T08:10:52.170Z,45.83
2023-02-09T08:13:18.943Z,41.42
2023-02-09T08:15:49.392Z,48.13
2023-02-09T08:18:22.275Z,45.25
2023-02-09T08:20:49.466Z,47.17
2023-02-09T08:23:21.024Z,46.80
2023-02-09T08:25:51.228Z,52.45
2023-02-09T08:30:49.140Z,43.65
2023-02-09T08:33:16.183Z,39.67
2023-02-09T08:35:43.505Z,40.55
2023-02-09T08:38:10.631Z,40.72
2023-02-09T08:40:41.241Z,40.53
2023-02-09T08:43:08.591Z,36.83
2023-02-09T08:45:37.121Z,36.92
2023-02-09T08:48:06.342Z,40.58
2023-02-09T08:50:33.529Z,41.55
2023-02-09T08:53:02.728Z,36.20
2023-02-09T08:55:33.872Z,35.95
2023-02-09T08:58:00.808Z,33.28
2023-02-09T09:00:27.947Z,33.03
2023-02-09T09:02:54.589Z,30.55
2023-02-09T09:05:21.155Z,47.97
2023-02-09T09:07:48.171Z,30.85
2023-02-09T09:10:14.858Z,33.47
2023-02-09T09:12:41.416Z,31.88
2023-02-09T09:15:08.314Z,28.88
2023-02-09T09:17:34.981Z,29.90
2023-02-09T09:20:01.538Z,29.45
2023-02-09T09:22:29.589Z,27.50
2023-02-09T09:24:56.242Z,27.58
2023-02-09T09:27:24.778Z,25.30
2023-02-09T09:29:52.670Z,26.83
2023-02-09T09:32:24.533Z,27.20
2023-02-09T09:34:56.097Z,25.02
2023-02-09T09:37:23.009Z,28.20
2023-02-09T09:39:49.894Z,28.23
2023-02-09T09:42:34.258Z,28.35
2023-02-09T09:45:01.376Z,25.50
2023-02-09T09:47:35.744Z,29.77
2023-02-09T09:50:07.736Z,29.65
2023-02-09T09:52:38.449Z,28.40
2023-02-09T09:55:09.418Z,30.30
2023-02-09T09:57:38.860Z,30.42
2023-02-09T10:00:17.336Z,31.13
2023-02-09T10:02:44.596Z,29.77
2023-02-09T10:05:18.722Z,29.23
2023-02-09T10:07:55.214Z,32.05
2023-02-09T10:10:33.648Z,30.27
2023-02-09T10:13:02.899Z,31.30
2023-02-09T10:15:29.436Z,32.03
2023-02-09T10:17:56.951Z,31.90
2023-02-09T10:20:42.815Z,31.08
2023-02-09T10:23:20.036Z,33.17
2023-02-09T10:26:16.393Z,32.67
2023-02-09T10:28:51.591Z,30.75
2023-02-09T10:31:29.171Z,32.38
2023-02-09T10:33:58.277Z,31.88
2023-02-09T10:36:31.721Z,34.85
2023-02-09T10:39:17.843Z,31.42
2023-02-09T10:41:47.118Z,35.25
2023-02-09T10:44:22.900Z,34.45
2023-02-09T10:46:49.603Z,33.45
2023-02-09T10:49:33.189Z,33.55
2023-02-09T10:52:12.986Z,32.22
2023-02-09T10:54:45.104Z,30.40
2023-02-09T10:57:20.966Z,31.13
2023-02-09T10:59:52.186Z,29.17
2023-02-09T11:02:35.988Z,30.08
2023-02-09T11:05:03.811Z,33.90
2023-02-09T11:07:37.408Z,31.27
2023-02-09T11:10:12.558Z,28.27
2023-02-09T11:12:39.333Z,33.65
2023-02-09T11:15:27.922Z,30.40
2023-02-09T11:18:01.121Z,28.40
2023-02-09T11:20:35.471Z,28.65
2023-02-09T11:23:01.979Z,33.58
2023-02-09T11:25:34.254Z,30.65
2023-02-09T11:28:26.868Z,32.17
2023-02-09T11:30:56.292Z,30.88
2023-02-09T11:34:00.615Z,34.78
2023-02-09T11:36:33.352Z,31.60
2023-02-09T11:39:08.722Z,33.03
2023-02-09T11:42:04.205Z,33.42
2023-02-09T11:44:41.654Z,33.60
2023-02-09T11:47:14.489Z,31.05
2023-02-09T11:49:48.576Z,34.60
2023-02-09T11:52:40.790Z,31.15
2023-02-09T11:55:41.679Z,31.45
2023-02-09T11:58:19.794Z,30.80
2023-02-09T12:00:57.966Z,32.53
2023-02-09T12:03:30.816Z,28.10
2023-02-09T12:05:57.532Z,25.77
2023-02-09T12:09:01.254Z,26.58
2023-02-09T12:11:41.922Z,27.90
2023-02-09T12:14:21.078Z,26.30
2023-02-09T12:16:53.813Z,29.48
2023-02-09T12:19:45.415Z,28.77
2023-02-09T12:22:33.778Z,26.40
2023-02-09T12:25:12.303Z,29.85
2023-02-09T12:27:43.584Z,30.30
2023-02-09T12:30:44.885Z,25.65
2023-02-09T12:33:14.502Z,26.67
2023-02-09T12:35:41.401Z,27.85
2023-02-09T12:38:15.597Z,23.42
2023-02-09T12:40:42.308Z,25.65
2023-02-09T12:43:14.627Z,25.70
2023-02-09T12:45:43.622Z,27.70
2023-02-09T12:48:10.202Z,25.23
2023-02-09T12:50:43.196Z,27.23
2023-02-09T12:53:22.097Z,24.52
2023-02-09T12:56:07.097Z,26.55
2023-02-09T12:58:45.614Z,24.95
2023-02-09T13:01:14.169Z,25.58
2023-02-09T13:03:45.175Z,27.20
2023-02-09T13:06:29.990Z,27.27
2023-02-09T13:08:58.656Z,30.45
2023-02-09T13:11:32.210Z,24.25
2023-02-09T13:14:03.829Z,23.63
2023-02-09T13:17:08.753Z,23.98
2023-02-09T13:19:59.999Z,27.77
2023-02-09T13:22:38.785Z,21.95
2023-02-09T13:25:19.232Z,24.60
2023-02-09T13:30:34.050Z,24.05
2023-02-09T13:33:18.885Z,25.77
2023-02-09T13:36:00.931Z,24.00
2023-02-09T13:38:31.377Z,25.08
2023-02-09T13:40:58.398Z,29.67
2023-02-09T13:43:32.671Z,24.52
2023-02-09T13:46:01.410Z,24.20
2023-02-09T13:48:28.268Z,21.42
2023-02-09T13:50:57.597Z,23.05
2023-02-09T13:53:26.078Z,23.45
2023-02-09T13:55:54.272Z,23.00
2023-02-09T13:58:24.437Z,24.05
2023-02-09T14:03:27.203Z,23.88
2023-02-09T14:05:58.195Z,22.10
2023-02-09T14:08:25.660Z,22.15
2023-02-09T14:11:17.291Z,24.33
2023-02-09T14:13:49.312Z,24.05
2023-02-09T14:16:17.954Z,26.38
2023-02-09T14:18:54.861Z,26.15
2023-02-09T14:21:31.056Z,24.63
2023-02-09T14:24:00.801Z,25.25
2023-02-09T14:26:36.010Z,26.10
2023-02-09T14:29:18.223Z,23.90
2023-02-09T14:31:46.922Z,24.33
2023-02-09T14:34:31.513Z,22.83
2023-02-09T14:37:01.019Z,25.17
2023-02-09T14:39:31.049Z,27.13
2023-02-09T14:42:10.586Z,23.25
2023-02-09T14:44:49.345Z,22.63
2023-02-09T14:47:38.805Z,24.00
2023-02-09T14:50:12.507Z,24.83
2023-02-09T14:52:40.195Z,23.05
2023-02-09T14:55:15.077Z,25.60
2023-02-09T14:57:41.899Z,23.88
2023-02-09T15:00:23.736Z,23.38
2023-02-09T15:02:51.775Z,22.00
2023-02-09T15:05:19.313Z,26.80
2023-02-09T15:07:49.524Z,25.23
2023-02-09T15:10:28.906Z,24.45
2023-02-09T15:12:55.700Z,25.48
2023-02-09T15:15:23.623Z,26.88
2023-02-09T15:17:51.650Z,22.00
2023-02-09T15:20:25.057Z,24.92
2023-02-09T15:22:55.306Z,22.48
2023-02-09T15:25:23.123Z,27.67
2023-02-09T15:27:52.447Z,21.10
2023-02-09T15:30:24.772Z,21.70
2023-02-09T15:32:51.567Z,27.52
2023-02-09T15:35:23.886Z,27.27
2023-02-09T15:37:59.772Z,22.85
2023-02-09T15:40:55.262Z,27.35
2023-02-09T15:43:42.088Z,23.42
2023-02-09T15:46:27.737Z,23.15
2023-02-09T15:48:54.462Z,22.45
2023-02-09T15:51:22.341Z,24.60
2023-02-09T15:53:49.190Z,24.92
2023-02-09T15:56:16.017Z,30.05
2023-02-09T15:58:44.897Z,28.95
2023-02-09T16:01:16.596Z,26.75
2023-02-09T16:03:43.678Z,25.70
2023-02-09T16:06:19.025Z,26.75
2023-02-09T16:08:46.340Z,23.50
2023-02-09T16:11:21.647Z,23.63
2023-02-09T16:13:48.912Z,24.15
2023-02-09T16:16:17.886Z,27.70
2023-02-09T16:18:45.906Z,24.33
2023-02-09T16:21:33.444Z,24.52
2023-02-09T16:24:02.530Z,24.00
2023-02-09T16:26:30.114Z,22.95
2023-02-09T16:28:57.193Z,25.70
2023-02-09T16:31:25.282Z,29.45
2023-02-09T16:33:52.224Z,31.42
2023-02-09T16:36:29.091Z,35.95
2023-02-09T16:38:55.697Z,29.42
2023-02-09T16:41:41.169Z,33.13
2023-02-09T16:44:22.396Z,28.27
2023-02-09T16:46:51.748Z,27.77
2023-02-09T16:49:38.762Z,27.95
2023-02-09T16:52:30.140Z,27.05
2023-02-09T16:55:00.248Z,28.65
2023-02-09T16:57:28.338Z,28.92
2023-02-09T16:59:55.545Z,25.15
2023-02-09T17:02:31.066Z,29.05
2023-02-09T17:04:58.116Z,33.22
2023-02-09T17:07:30.445Z,29.30
2023-02-09T17:09:57.411Z,25.13
2023-02-09T17:12:24.081Z,29.92
2023-02-09T17:14:50.697Z,30.15
2023-02-09T17:17:19.572Z,25.70
2023-02-09T17:19:48.116Z,30.33
2023-02-09T17:22:15.518Z,31.50
2023-02-09T17:24:42.106Z,30.25
2023-02-09T17:27:09.700Z,35.92
2023-02-09T17:29:36.304Z,31.63
2023-02-09T17:32:03.692Z,35.15
2023-02-09T17:34:30.364Z,33.95
2023-02-09T17:36:58.016Z,58.75
2023-02-09T17:39:24.841Z,36.53
2023-02-09T17:41:51.660Z,38.55
2023-02-09T17:44:34.869Z,42.40
2023-02-09T17:47:10.809Z,44.05
2023-02-09T17:49:37.465Z,36.92
2023-02-09T17:52:04.107Z,44.92
2023-02-09T17:54:32.432Z,42.63
2023-02-09T17:56:59.138Z,41.17
2023-02-09T17:59:25.801Z,41.65
2023-02-09T18:01:55.171Z,42.25
2023-02-09T18:04:26.579Z,39.10
2023-02-09T18:06:53.308Z,43.53
2023-02-09T18:09:20.096Z,39.97
2023-02-09T18:11:52.498Z,50.38
2023-02-09T18:14:20.459Z,43.00
2023-02-09T18:16:47.704Z,41.72
2023-02-09T18:19:15.834Z,38.33
2023-02-09T18:21:49.651Z,40.03
2023-02-09T18:24:17.023Z,48.50
2023-02-09T18:26:43.776Z,43.58
2023-02-09T18:29:10.368Z,47.20
2023-02-09T18:31:37.780Z,40.97
2023-02-09T18:34:04.521Z,44.47
2023-02-09T18:36:32.674Z,43.45
2023-02-09T18:38:59.606Z,38.47
2023-02-09T18:41:27.777Z,39.38
2023-02-09T18:43:54.660Z,43.25
2023-02-09T18:46:24.505Z,38.65
2023-02-09T18:48:51.911Z,40.55
2023-02-09T18:51:18.675Z,40.28
2023-02-09T18:53:45.284Z,47.88
2023-02-09T18:56:22.252Z,40.45
2023-02-09T18:58:52.542Z,42.47
2023-02-09T19:01:21.031Z,40.80
2023-02-09T19:03:51.602Z,45.53
2023-02-09T19:06:20.348Z,38.08
2023-02-09T19:08:47.486Z,39.60
2023-02-09T19:11:16.350Z,37.03
2023-02-09T19:13:42.986Z,38.35
2023-02-09T19:16:13.252Z,35.25
2023-02-09T19:21:07.239Z,33.20
2023-02-09T19:23:34.197Z,33.97
2023-02-09T19:26:02.774Z,39.20
2023-02-09T19:28:29.438Z,37.65
2023-02-09T19:30:56.189Z,36.97
2023-02-09T19:33:23.392Z,33.08
2023-02-09T19:35:59.676Z,46.67
2023-02-09T19:38:26.761Z,31.50
2023-02-09T19:41:09.779Z,33.35
2023-02-09T19:43:38.387Z,31.92
2023-02-09T19:46:05.641Z,32.45
2023-02-09T19:48:32.300Z,31.40
2023-02-09T19:50:59.285Z,33.25
2023-02-09T19:53:26.133Z,34.40
2023-02-09T19:55:53.798Z,42.30
2023-02-09T19:58:23.913Z,36.25
2023-02-09T20:00:51.391Z,37.00
2023-02-09T20:03:18.616Z,34.97
2023-02-09T20:05:46.220Z,31.25
2023-02-09T20:08:14.712Z,32.60
2023-02-09T20:10:41.315Z,31.48
2023-02-09T20:13:08.907Z,31.45
2023-02-09T20:15:36.048Z,37.67
2023-02-09T20:18:02.630Z,38.28
2023-02-09T20:20:29.206Z,34.38
2023-02-09T20:22:55.747Z,37.83
2023-02-09T20:25:22.407Z,35.60
2023-02-09T20:27:52.343Z,35.00
2023-02-09T20:30:19.016Z,37.65
2023-02-09T20:32:45.765Z,34.65
2023-02-09T20:35:12.598Z,37.25
2023-02-09T20:37:39.169Z,32.38
2023-02-09T20:40:06.601Z,34.72
2023-02-09T20:42:51.861Z,36.75
2023-02-09T20:45:37.135Z,37.75
2023-02-09T20:48:04.986Z,34.42
2023-02-09T20:50:32.862Z,35.30
2023-02-09T20:53:01.384Z,40.22
2023-02-09T20:55:28.629Z,41.10
2023-02-09T20:57:55.231Z,38.58
2023-02-09T21:00:22.489Z,35.13
2023-02-09T21:02:49.198Z,37.60
2023-02-09T21:05:16.596Z,40.25
2023-02-09T21:07:43.482Z,34.83
2023-02-09T21:10:12.773Z,36.20
2023-02-09T21:12:39.585Z,37.67
2023-02-09T21:15:07.023Z,39.30
2023-02-09T21:17:33.687Z,35.83
2023-02-09T21:20:00.289Z,33.20
2023-02-09T21:22:26.973Z,40.00
2023-02-09T21:24:53.576Z,36.70
2023-02-09T21:27:20.416Z,33.50
2023-02-09T21:29:47.353Z,33.60
2023-02-09T21:32:14.089Z,35.97
2023-02-09T21:34:40.764Z,35.03
2023-02-09T21:37:10.112Z,32.13
2023-02-09T21:39:36.847Z,35.63
2023-02-09T21:42:22.079Z,32.15
2023-02-09T21:44:48.757Z,35.25
2023-02-09T21:47:15.508Z,30.75
2023-02-09T21:49:42.125Z,36.63
2023-02-09T21:52:08.733Z,46.30
2023-02-09T21:54:35.370Z,40.95
2023-02-09T21:57:02.470Z,43.92
2023-02-09T21:59:29.689Z,42.17
2023-02-09T22:01:56.409Z,37.53
2023-02-09T22:04:23.218Z,43.22
2023-02-09T22:06:49.895Z,36.65
2023-02-09T22:09:16.566Z,39.10
2023-02-09T22:11:43.123Z,37.83
2023-02-09T22:14:09.860Z,39.90
2023-02-09T22:16:36.809Z,42.17
2023-02-09T22:19:03.553Z,42.53
2023-02-09T22:21:30.790Z,44.83
2023-02-09T22:23:57.431Z,48.38
2023-02-09T22:26:24.043Z,43.33
2023-02-09T22:28:50.655Z,42.10
2023-02-09T22:31:18.647Z,44.42
2023-02-09T22:33:45.522Z,42.45
2023-02-09T22:36:15.714Z,46.50
2023-02-09T22:38:44.487Z,41.55
2023-02-09T22:41:23.063Z,50.00
2023-02-09T22:43:57.581Z,47.25
2023-02-09T22:46:26.676Z,38.08
2023-02-09T22:48:55.001Z,38.03
2023-02-09T22:51:22.245Z,41.53
2023-02-09T22:53:49.199Z,43.00
2023-02-09T22:56:16.122Z,39.72
2023-02-09T22:58:42.805Z,39.25
2023-02-09T23:01:09.922Z,41.13
2023-02-09T23:03:36.849Z,39.97
2023-02-09T23:06:08.849Z,39.97
2023-02-09T23:08:36.119Z,42.10
2023-02-09T23:11:07.888Z,36.35
2023-02-09T23:13:35.612Z,37.22
2023-02-09T23:16:17.216Z,38.47
2023-02-09T23:18:49.903Z,39.20
2023-02-09T23:21:17.414Z,38.65
2023-02-09T23:23:45.575Z,40.28
2023-02-09T23:26:13.210Z,48.13
2023-02-09T23:28:40.015Z,41.10
2023-02-09T23:31:08.639Z,42.75
2023-02-09T23:33:36.652Z,40.65
2023-02-09T23:36:08.057Z,39.88
2023-02-09T23:38:35.105Z,46.15
2023-02-09T23:41:16.173Z,45.28
2023-02-09T23:43:43.296Z,41.05
2023-02-09T23:46:16.305Z,42.05
2023-02-09T23:48:44.469Z,43.20
2023-02-09T23:51:32.933Z,42.75
2023-02-09T23:54:04.207Z,39.35
2023-02-09T23:56:36.892Z,38.88
2023-02-09T23:59:05.435Z,46.50
